createdAt,value
2022-11-14T00:00:18.828Z,98084.50
2022-11-14T00:03:07.462Z,98087.19
2022-11-14T00:05:56.612Z,98080.94
2022-11-14T00:08:43.836Z,98083.63
2022-11-14T00:11:30.723Z,98072.97
2022-11-14T00:14:17.833Z,98081.88
2022-11-14T00:17:05.232Z,98077.47
2022-11-14T00:19:52.061Z,98072.09
2022-11-14T00:22:41.519Z,98064.03
2022-11-14T00:25:28.630Z,98062.28
2022-11-14T00:28:16.170Z,98057.88
2022-11-14T00:31:03.487Z,98048.94
2022-11-14T00:33:51.198Z,98047.22
2022-11-14T00:36:38.840Z,98055.28
2022-11-14T00:39:27.848Z,98044.59
2022-11-14T00:42:14.671Z,98035.75
2022-11-14T00:45:02.140Z,98039.31
2022-11-14T00:47:48.673Z,98037.59
2022-11-14T00:50:35.765Z,98045.72
2022-11-14T00:53:23.069Z,98042.19
2022-11-14T00:56:11.935Z,98047.53
2022-11-14T00:58:59.584Z,98046.66
2022-11-14T01:01:46.985Z,98049.34
2022-11-14T01:04:34.325Z,98043.19
2022-11-14T01:07:21.646Z,98044.91
2022-11-14T01:10:09.936Z,98051.25
2022-11-14T01:12:59.227Z,98050.38
2022-11-14T01:15:47.697Z,98040.59
2022-11-14T01:18:35.496Z,98042.41
2022-11-14T01:21:22.966Z,98038.84
2022-11-14T01:24:10.732Z,98040.66
2022-11-14T01:26:58.321Z,98045.19
2022-11-14T01:29:47.421Z,98042.50
2022-11-14T01:32:34.344Z,98038.06
2022-11-14T01:35:21.605Z,98033.66
2022-11-14T01:38:08.626Z,98037.19
2022-11-14T01:40:55.660Z,98027.41
2022-11-14T01:43:43.274Z,98031.03
2022-11-14T01:46:33.229Z,98017.59
2022-11-14T01:49:22.153Z,98019.44
2022-11-14T01:52:12.097Z,98023.94
2022-11-14T01:55:01.757Z,98023.94
2022-11-14T01:57:49.449Z,98020.38
2022-11-14T02:00:37.032Z,98018.66
2022-11-14T02:03:26.046Z,98009.81
2022-11-14T02:06:14.737Z,97999.09
2022-11-14T02:09:02.873Z,97995.53
2022-11-14T02:11:50.322Z,97996.41
2022-11-14T02:14:37.935Z,97992.94
2022-11-14T02:17:30.628Z,97984.88
2022-11-14T02:20:34.046Z,97988.50
2022-11-14T02:23:27.143Z,97984.94
2022-11-14T02:26:14.286Z,97984.94
2022-11-14T02:29:01.960Z,97987.63
2022-11-14T02:31:49.452Z,97973.34
2022-11-14T02:34:36.979Z,97973.34
2022-11-14T02:37:26.166Z,97973.41
2022-11-14T02:40:14.065Z,97968.03
2022-11-14T02:43:03.020Z,97976.19
2022-11-14T02:45:50.500Z,97975.25
2022-11-14T02:48:37.622Z,97965.44
2022-11-14T02:51:25.187Z,97970.81
2022-11-14T02:54:14.255Z,97967.34
2022-11-14T02:57:01.581Z,97977.06
2022-11-14T02:59:48.788Z,97975.41
2022-11-14T03:02:36.161Z,97967.34
2022-11-14T03:05:23.558Z,97971.84
2022-11-14T03:08:11.233Z,97971.00
2022-11-14T03:11:05.279Z,97973.75
2022-11-14T03:13:52.708Z,97963.97
2022-11-14T03:16:39.668Z,97964.75
2022-11-14T03:19:27.242Z,97973.75
2022-11-14T03:22:14.544Z,97966.66
2022-11-14T03:25:02.253Z,97970.25
2022-11-14T03:27:51.419Z,97971.22
2022-11-14T03:30:39.373Z,97966.78
2022-11-14T03:33:26.073Z,97946.28
2022-11-14T03:36:13.096Z,97950.69
2022-11-14T03:39:02.475Z,97946.28
2022-11-14T03:41:49.896Z,97949.06
2022-11-14T03:44:38.782Z,97950.88
2022-11-14T03:47:25.806Z,97957.13
2022-11-14T03:50:12.708Z,97951.75
2022-11-14T03:53:00.064Z,97948.19
2022-11-14T03:55:47.718Z,97945.59
2022-11-14T03:58:35.427Z,97954.50
2022-11-14T04:01:24.765Z,97947.31
2022-11-14T04:04:13.269Z,97946.44
2022-11-14T04:07:01.069Z,97948.28
2022-11-14T04:09:48.434Z,97942.97
2022-11-14T04:12:35.841Z,97940.28
2022-11-14T04:15:23.321Z,97935.00
2022-11-14T04:18:12.390Z,97926.16
2022-11-14T04:20:59.417Z,97925.28
2022-11-14T04:23:46.971Z,97920.72
2022-11-14T04:26:34.007Z,97924.38
2022-11-14T04:29:21.467Z,97938.72
2022-11-14T04:32:08.915Z,97933.28
2022-11-14T04:34:58.060Z,97933.28
2022-11-14T04:37:45.669Z,97944.03
2022-11-14T04:40:32.980Z,97934.31
2022-11-14T04:43:21.527Z,97937.88
2022-11-14T04:46:08.985Z,97937.88
2022-11-14T04:48:56.643Z,97943.28
2022-11-14T04:51:45.598Z,97948.75
2022-11-14T04:54:32.985Z,97945.13
2022-11-14T04:57:19.975Z,97946.06
2022-11-14T05:00:08.281Z,97946.94
2022-11-14T05:02:55.424Z,97937.88
2022-11-14T05:05:42.648Z,97945.84
2022-11-14T05:08:32.361Z,97946.75
2022-11-14T05:11:23.207Z,97935.25
2022-11-14T05:14:13.937Z,97935.09
2022-11-14T05:17:01.509Z,97936.81
2022-11-14T05:19:49.152Z,97931.44
2022-11-14T05:22:36.697Z,97931.44
2022-11-14T05:25:25.669Z,97935.69
2022-11-14T05:28:12.780Z,97937.44
2022-11-14T05:31:04.075Z,97937.34
2022-11-14T05:33:51.889Z,97934.59
2022-11-14T05:36:39.557Z,97937.28
2022-11-14T05:39:26.404Z,97938.06
2022-11-14T05:42:15.734Z,97939.81
2022-11-14T05:45:03.529Z,97943.38
2022-11-14T05:47:50.846Z,97950.34
2022-11-14T05:50:38.328Z,97941.38
2022-11-14T05:53:25.641Z,97935.03
2022-11-14T05:56:13.739Z,97935.03
2022-11-14T05:59:02.314Z,97945.63
2022-11-14T06:01:49.671Z,97937.56
2022-11-14T06:04:36.947Z,97942.94
2022-11-14T06:07:23.870Z,97943.81
2022-11-14T06:10:11.453Z,97936.59
2022-11-14T06:12:58.904Z,97936.44
2022-11-14T06:15:47.561Z,97941.91
2022-11-14T06:18:35.034Z,97926.66
2022-11-14T06:21:23.408Z,97941.81
2022-11-14T06:24:10.768Z,97951.53
2022-11-14T06:26:58.180Z,97946.06
2022-11-14T06:29:46.011Z,97942.50
2022-11-14T06:32:34.855Z,97948.75
2022-11-14T06:35:22.301Z,97952.31
2022-11-14T06:38:09.703Z,97949.53
2022-11-14T06:41:04.111Z,97949.53
2022-11-14T06:43:53.149Z,97945.03
2022-11-14T06:46:40.265Z,97947.72
2022-11-14T06:49:29.313Z,97944.16
2022-11-14T06:52:16.083Z,97952.22
2022-11-14T06:55:02.797Z,97956.63
2022-11-14T06:57:54.379Z,97948.50
2022-11-14T07:00:41.510Z,97943.94
2022-11-14T07:03:28.200Z,97960.03
2022-11-14T07:06:17.980Z,97958.19
2022-11-14T07:09:05.625Z,97952.81
2022-11-14T07:11:52.429Z,97958.19
2022-11-14T07:14:39.209Z,97955.50
2022-11-14T07:17:30.962Z,97951.00
2022-11-14T07:20:19.028Z,97948.31
2022-11-14T07:23:07.221Z,97942.97
2022-11-14T07:25:54.080Z,97940.28
2022-11-14T07:28:41.996Z,97931.34
2022-11-14T07:31:28.957Z,97929.44
2022-11-14T07:34:19.133Z,97919.66
2022-11-14T07:37:05.761Z,97929.53
2022-11-14T07:39:54.322Z,97920.53
2022-11-14T07:42:43.506Z,97924.06
2022-11-14T07:45:30.828Z,97919.66
2022-11-14T07:48:17.793Z,97930.31
2022-11-14T07:51:05.672Z,97921.38
2022-11-14T07:53:53.757Z,97916.00
2022-11-14T07:56:41.935Z,97912.38
2022-11-14T07:59:28.788Z,97917.75
2022-11-14T08:02:15.721Z,97912.38
2022-11-14T08:05:02.571Z,97925.72
2022-11-14T08:07:52.025Z,97930.22
2022-11-14T08:10:39.419Z,97929.28
2022-11-14T08:13:33.072Z,97928.31
2022-11-14T08:16:20.758Z,97929.19
2022-11-14T08:19:08.138Z,97929.09
2022-11-14T08:21:55.011Z,97917.41
2022-11-14T08:24:42.188Z,97917.41
2022-11-14T08:27:29.143Z,97914.63
2022-11-14T08:30:18.211Z,97902.09
2022-11-14T08:33:05.780Z,97903.78
2022-11-14T08:35:53.010Z,97896.63
2022-11-14T08:38:39.784Z,97901.09
2022-11-14T08:41:26.765Z,97899.19
2022-11-14T08:44:13.544Z,97895.59
2022-11-14T08:47:02.442Z,97900.00
2022-11-14T08:49:49.146Z,97903.53
2022-11-14T08:52:36.253Z,97907.97
2022-11-14T08:55:23.212Z,97904.34
2022-11-14T08:58:09.786Z,97905.22
2022-11-14T09:00:56.330Z,97907.03
2022-11-14T09:03:44.474Z,97900.75
2022-11-14T09:06:31.294Z,97900.75
2022-11-14T09:09:17.750Z,97907.81
2022-11-14T09:12:05.193Z,97904.25
2022-11-14T09:14:52.115Z,97900.75
2022-11-14T09:17:38.808Z,97903.53
2022-11-14T09:20:32.257Z,97897.25
2022-11-14T09:23:21.307Z,97902.59
2022-11-14T09:26:07.977Z,97890.03
2022-11-14T09:28:54.790Z,97890.03
2022-11-14T09:31:41.697Z,97890.94
2022-11-14T09:34:28.407Z,97888.25
2022-11-14T09:37:16.505Z,97888.25
2022-11-14T09:40:03.726Z,97890.00
2022-11-14T09:43:01.558Z,97887.31
2022-11-14T09:45:50.139Z,97884.63
2022-11-14T09:48:37.326Z,97875.59
2022-11-14T09:51:25.707Z,97881.06
2022-11-14T09:54:17.875Z,97872.03
2022-11-14T09:57:04.433Z,97852.38
2022-11-14T09:59:51.486Z,97842.47
2022-11-14T10:02:41.504Z,97855.91
2022-11-14T10:05:43.746Z,97850.53
2022-11-14T10:08:38.421Z,97842.47
2022-11-14T10:11:31.196Z,97849.69
2022-11-14T10:14:37.871Z,97852.38
2022-11-14T10:17:43.741Z,97843.34
2022-11-14T10:20:33.998Z,97837.97
2022-11-14T10:23:27.654Z,97839.78
2022-11-14T10:26:17.135Z,97841.63
2022-11-14T10:29:22.493Z,97840.75
2022-11-14T10:32:16.052Z,97841.53
2022-11-14T10:35:03.860Z,97841.53
2022-11-14T10:37:56.749Z,97836.16
2022-11-14T10:40:45.956Z,97826.28
2022-11-14T10:43:35.661Z,97821.75
2022-11-14T10:46:25.583Z,97809.22
2022-11-14T10:49:17.394Z,97801.16
2022-11-14T10:52:06.393Z,97800.28
2022-11-14T10:54:54.578Z,97793.09
2022-11-14T10:57:42.624Z,97794.06
2022-11-14T11:00:29.779Z,97788.69
2022-11-14T11:03:18.285Z,97791.28
2022-11-14T11:06:05.404Z,97779.56
2022-11-14T11:09:10.050Z,97790.31
2022-11-14T11:11:58.431Z,97788.69
2022-11-14T11:14:45.575Z,97785.13
2022-11-14T11:17:38.612Z,97782.34
2022-11-14T11:20:32.591Z,97778.88
2022-11-14T11:23:20.500Z,97770.28
2022-11-14T11:26:09.830Z,97774.72
2022-11-14T11:29:16.244Z,97762.22
2022-11-14T11:32:03.284Z,97759.31
2022-11-14T11:34:49.961Z,97753.94
2022-11-14T11:37:41.360Z,97747.63
2022-11-14T11:40:29.136Z,97736.06
2022-11-14T11:46:28.557Z,97731.53
2022-11-14T11:49:17.255Z,97728.84
2022-11-14T11:52:06.380Z,97723.47
2022-11-14T11:54:59.878Z,97715.38
2022-11-14T11:57:48.044Z,97714.56
2022-11-14T12:00:35.061Z,97710.00
2022-11-14T12:03:21.902Z,97697.41
2022-11-14T12:06:14.487Z,97702.78
2022-11-14T12:09:07.273Z,97692.91
2022-11-14T12:11:56.938Z,97689.34
2022-11-14T12:14:53.909Z,97699.16
2022-11-14T12:18:01.482Z,97690.13
2022-11-14T12:21:12.530Z,97684.69
2022-11-14T12:24:31.066Z,97676.53
2022-11-14T12:27:25.795Z,97676.53
2022-11-14T12:30:14.944Z,97662.13
2022-11-14T12:33:03.209Z,97669.34
2022-11-14T12:35:51.953Z,97667.50
2022-11-14T12:38:43.505Z,97671.06
2022-11-14T12:41:31.720Z,97672.81
2022-11-14T12:44:23.908Z,97671.81
2022-11-14T12:47:16.060Z,97669.16
2022-11-14T12:50:06.397Z,97677.31
2022-11-14T12:52:54.562Z,97672.81
2022-11-14T12:56:09.360Z,97671.81
2022-11-14T12:59:32.068Z,97674.63
2022-11-14T13:02:42.459Z,97677.31
2022-11-14T13:05:52.259Z,97673.66
2022-11-14T13:09:00.125Z,97674.50
2022-11-14T13:12:04.342Z,97668.28
2022-11-14T13:15:08.805Z,97669.91
2022-11-14T13:18:23.663Z,97672.59
2022-11-14T13:21:45.125Z,97661.84
2022-11-14T13:25:05.982Z,97655.53
2022-11-14T13:28:21.713Z,97659.06
2022-11-14T13:31:07.964Z,97656.38
2022-11-14T13:33:59.022Z,97650.06
2022-11-14T13:36:47.949Z,97655.44
2022-11-14T13:39:37.853Z,97650.06
2022-11-14T13:42:30.870Z,97652.75
2022-11-14T13:45:50.323Z,97652.66
2022-11-14T13:49:02.877Z,97650.84
2022-11-14T13:51:52.101Z,97644.47
2022-11-14T13:54:38.785Z,97646.34
2022-11-14T13:57:29.777Z,97643.53
2022-11-14T14:00:21.160Z,97650.63
2022-11-14T14:03:22.987Z,97652.53
2022-11-14T14:06:17.507Z,97642.78
2022-11-14T14:09:17.070Z,97646.34
2022-11-14T14:12:24.992Z,97647.28
2022-11-14T14:15:18.830Z,97644.47
2022-11-14T14:18:10.272Z,97640.97
2022-11-14T14:20:59.724Z,97649.03
2022-11-14T14:23:51.334Z,97642.78
2022-11-14T14:26:55.949Z,97638.28
2022-11-14T14:29:46.586Z,97633.84
2022-11-14T14:32:33.777Z,97637.88
2022-11-14T14:35:24.985Z,97630.88
2022-11-14T14:38:12.608Z,97621.81
2022-11-14T14:41:01.045Z,97627.97
2022-11-14T14:43:52.655Z,97623.47
2022-11-14T14:46:39.602Z,97629.72
2022-11-14T14:49:27.349Z,97627.03
2022-11-14T14:52:21.782Z,97623.47
2022-11-14T14:55:19.517Z,97622.59
2022-11-14T14:58:22.263Z,97628.84
2022-11-14T15:01:11.365Z,97627.03
2022-11-14T15:03:59.237Z,97627.97
2022-11-14T15:06:46.573Z,97622.59
2022-11-14T15:09:33.666Z,97618.19
2022-11-14T15:12:20.244Z,97623.56
2022-11-14T15:15:11.183Z,97627.19
2022-11-14T15:17:58.902Z,97627.19
2022-11-14T15:20:45.625Z,97627.19
2022-11-14T15:23:34.984Z,97627.19
2022-11-14T15:26:21.953Z,97624.81
2022-11-14T15:29:09.598Z,97634.94
2022-11-14T15:31:59.088Z,97634.00
2022-11-14T15:35:04.561Z,97630.25
2022-11-14T15:38:28.746Z,97628.34
2022-11-14T15:41:19.179Z,97630.97
2022-11-14T15:44:06.050Z,97636.22
2022-11-14T15:46:52.976Z,97637.00
2022-11-14T15:49:41.188Z,97629.06
2022-11-14T15:52:30.032Z,97636.22
2022-11-14T15:55:18.028Z,97640.84
2022-11-14T15:58:27.007Z,97655.97
2022-11-14T16:01:15.146Z,97639.03
2022-11-14T16:04:02.852Z,97642.47
2022-11-14T16:06:51.475Z,97646.00
2022-11-14T16:09:38.296Z,97641.50
2022-11-14T16:12:25.394Z,97637.09
2022-11-14T16:15:12.326Z,97636.13
2022-11-14T16:17:59.469Z,97630.75
2022-11-14T16:20:46.125Z,97630.88
2022-11-14T16:23:34.279Z,97630.75
2022-11-14T16:26:21.549Z,97629.88
2022-11-14T16:29:08.606Z,97630.75
2022-11-14T16:31:56.473Z,97628.19
2022-11-14T16:34:43.674Z,97626.34
2022-11-14T16:37:30.611Z,97621.81
2022-11-14T16:40:21.618Z,97627.19
2022-11-14T16:43:10.426Z,97622.81
2022-11-14T16:45:57.628Z,97611.19
2022-11-14T16:48:44.354Z,97610.31
2022-11-14T16:51:47.402Z,97613.78
2022-11-14T16:54:34.814Z,97620.88
2022-11-14T16:57:23.591Z,97617.44
2022-11-14T17:00:12.831Z,97622.69
2022-11-14T17:03:02.391Z,97630.75
2022-11-14T17:05:50.544Z,97617.44
2022-11-14T17:08:37.468Z,97621.81
2022-11-14T17:11:24.980Z,97617.53
2022-11-14T17:14:13.601Z,97613.09
2022-11-14T17:17:03.799Z,97610.31
2022-11-14T17:19:50.956Z,97609.47
2022-11-14T17:22:37.636Z,97608.59
2022-11-14T17:25:24.956Z,97605.91
2022-11-14T17:28:11.986Z,97604.16
2022-11-14T17:31:00.644Z,97601.47
2022-11-14T17:33:52.265Z,97601.47
2022-11-14T17:36:39.378Z,97604.09
2022-11-14T17:39:26.543Z,97605.91
2022-11-14T17:42:13.681Z,97613.09
2022-11-14T17:45:02.039Z,97606.84
2022-11-14T17:47:50.156Z,97613.00
2022-11-14T17:50:40.217Z,97603.13
2022-11-14T17:53:27.021Z,97611.09
2022-11-14T17:56:16.165Z,97613.78
2022-11-14T17:59:03.285Z,97613.78
2022-11-14T18:01:50.470Z,97611.09
2022-11-14T18:04:42.166Z,97609.25
2022-11-14T18:07:33.197Z,97611.84
2022-11-14T18:10:20.115Z,97609.09
2022-11-14T18:13:08.269Z,97611.78
2022-11-14T18:15:55.292Z,97598.34
2022-11-14T18:18:41.879Z,97605.44
2022-11-14T18:21:30.579Z,97609.00
2022-11-14T18:24:17.358Z,97603.50
2022-11-14T18:27:04.439Z,97611.47
2022-11-14T18:29:51.841Z,97613.22
2022-11-14T18:32:38.905Z,97605.94
2022-11-14T18:35:26.079Z,97606.78
2022-11-14T18:38:14.789Z,97595.84
2022-11-14T18:41:03.452Z,97596.72
2022-11-14T18:43:50.833Z,97599.41
2022-11-14T18:46:38.349Z,97601.22
2022-11-14T18:49:28.963Z,97597.47
2022-11-14T18:52:17.720Z,97586.63
2022-11-14T18:55:08.116Z,97592.00
2022-11-14T18:57:55.313Z,97582.31
2022-11-14T19:00:42.072Z,97584.91
2022-11-14T19:03:30.289Z,97580.38
2022-11-14T19:06:17.316Z,97591.13
2022-11-14T19:09:10.788Z,97590.19
2022-11-14T19:12:17.023Z,97583.84
2022-11-14T19:15:04.162Z,97584.72
2022-11-14T19:17:51.382Z,97584.72
2022-11-14T19:20:38.605Z,97576.53
2022-11-14T19:23:25.699Z,97567.53
2022-11-14T19:26:12.972Z,97564.84
2022-11-14T19:29:03.701Z,97570.00
2022-11-14T19:31:50.854Z,97557.44
2022-11-14T19:34:37.521Z,97559.19
2022-11-14T19:37:24.585Z,97559.19
2022-11-14T19:40:12.417Z,97553.72
2022-11-14T19:43:02.052Z,97556.28
2022-11-14T19:45:50.692Z,97558.97
2022-11-14T19:48:37.769Z,97560.63
2022-11-14T19:51:24.745Z,97556.19
2022-11-14T19:54:12.337Z,97551.78
2022-11-14T19:56:59.215Z,97558.81
2022-11-14T19:59:48.880Z,97563.31
2022-11-14T20:02:40.558Z,97557.16
2022-11-14T20:05:27.681Z,97567.91
2022-11-14T20:08:14.645Z,97558.09
2022-11-14T20:11:02.416Z,97552.72
2022-11-14T20:13:49.320Z,97549.28
2022-11-14T20:16:37.470Z,97550.16
2022-11-14T20:19:25.525Z,97544.00
2022-11-14T20:22:12.695Z,97543.06
2022-11-14T20:25:00.247Z,97544.00
2022-11-14T20:27:47.013Z,97545.81
2022-11-14T20:30:33.762Z,97541.31
2022-11-14T20:33:20.305Z,97528.09
2022-11-14T20:36:11.739Z,97518.94
2022-11-14T20:38:59.754Z,97514.56
2022-11-14T20:41:46.657Z,97508.41
2022-11-14T20:44:33.696Z,97511.09
2022-11-14T20:47:20.329Z,97511.97
2022-11-14T20:50:07.754Z,97512.03
2022-11-14T20:52:56.153Z,97516.47
2022-11-14T20:55:43.064Z,97508.53
2022-11-14T20:58:29.861Z,97512.16
2022-11-14T21:01:16.826Z,97506.66
2022-11-14T21:04:03.572Z,97499.69
2022-11-14T21:06:50.394Z,97492.47
2022-11-14T21:09:38.869Z,97492.47
2022-11-14T21:12:25.869Z,97494.22
2022-11-14T21:15:13.065Z,97492.47
2022-11-14T21:18:00.581Z,97489.72
2022-11-14T21:20:47.864Z,97478.19
2022-11-14T21:23:34.598Z,97475.50
2022-11-14T21:26:23.629Z,97471.94
2022-11-14T21:29:12.057Z,97480.97
2022-11-14T21:31:58.572Z,97489.03
2022-11-14T21:34:45.720Z,97483.66
2022-11-14T21:37:32.522Z,97480.97
2022-11-14T21:40:19.324Z,97474.81
2022-11-14T21:43:07.569Z,97471.28
2022-11-14T21:45:59.122Z,97469.44
2022-11-14T21:48:47.251Z,97469.56
2022-11-14T21:51:34.374Z,97463.31
2022-11-14T21:54:21.035Z,97460.72
2022-11-14T21:57:10.302Z,97458.16
2022-11-14T21:59:59.465Z,97457.28
2022-11-14T22:03:04.009Z,97456.31
2022-11-14T22:05:50.638Z,97453.72
2022-11-14T22:08:37.434Z,97454.59
2022-11-14T22:11:24.258Z,97450.19
2022-11-14T22:14:11.301Z,97453.72
2022-11-14T22:17:00.504Z,97459.09
2022-11-14T22:19:47.473Z,97449.44
2022-11-14T22:22:34.293Z,97444.06
2022-11-14T22:25:20.745Z,97451.25
2022-11-14T22:28:07.813Z,97450.38
2022-11-14T22:31:05.410Z,97448.56
2022-11-14T22:33:53.948Z,97449.50
2022-11-14T22:36:40.897Z,97451.34
2022-11-14T22:39:27.950Z,97455.75
2022-11-14T22:42:14.678Z,97446.81
2022-11-14T22:45:01.327Z,97432.53
2022-11-14T22:47:48.588Z,97433.50
2022-11-14T22:50:37.116Z,97429.00
2022-11-14T22:53:24.087Z,97429.84
2022-11-14T22:56:12.131Z,97421.03
2022-11-14T22:59:00.462Z,97417.47
2022-11-14T23:01:47.349Z,97410.28
2022-11-14T23:04:33.902Z,97419.28
2022-11-14T23:07:22.619Z,97424.78
2022-11-14T23:10:10.370Z,97422.97
2022-11-14T23:12:57.277Z,97418.44
2022-11-14T23:15:48.128Z,97414.78
2022-11-14T23:18:34.769Z,97412.09
2022-11-14T23:21:22.956Z,97411.22
2022-11-14T23:24:14.084Z,97405.09
2022-11-14T23:27:01.304Z,97397.03
2022-11-14T23:29:48.662Z,97409.53
2022-11-14T23:32:35.776Z,97413.16
2022-11-14T23:35:22.960Z,97410.47
2022-11-14T23:38:10.835Z,97406.91
2022-11-14T23:41:00.338Z,97402.53
2022-11-14T23:43:47.276Z,97406.16
2022-11-14T23:46:34.348Z,97405.97
2022-11-14T23:49:21.414Z,97398.78
2022-11-14T23:52:09.011Z,97402.31
2022-11-14T23:54:55.925Z,97400.50
2022-11-14T23:57:44.001Z,97390.72
